sensor_id;sensor_type;location;lat;lon;timestamp;P1;durP1;ratioP1;P2;durP2;ratioP2
16766;SDS011;8501;49.926;8.404;2023-07-13T00:02:08;2.40;;;1.88;;
16766;SDS011;8501;49.926;8.404;2023-07-13T00:04:34;3.38;;;2.03;;
16766;SDS011;8501;49.926;8.404;2023-07-13T00:07:00;3.47;;;2.00;;
16766;SDS011;8501;49.926;8.404;2023-07-13T00:09:25;3.15;;;1.70;;
16766;SDS011;8501;49.926;8.404;2023-07-13T00:11:55;4.30;;;1.80;;
16766;SDS011;8501;49.926;8.404;2023-07-13T00:14:23;2.30;;;1.83;;
16766;SDS011;8501;49.926;8.404;2023-07-13T00:16:50;3.22;;;1.67;;
16766;SDS011;8501;49.926;8.404;2023-07-13T00:19:16;3.40;;;1.80;;
16766;SDS011;8501;49.926;8.404;2023-07-13T00:21:41;4.90;;;1.83;;
16766;SDS011;8501;49.926;8.404;2023-07-13T00:24:08;3.17;;;1.70;;
16766;SDS011;8501;49.926;8.404;2023-07-13T00:26:38;2.90;;;1.85;;
16766;SDS011;8501;49.926;8.404;2023-07-13T00:29:03;2.50;;;1.90;;
16766;SDS011;8501;49.926;8.404;2023-07-13T00:31:33;2.40;;;1.83;;
16766;SDS011;8501;49.926;8.404;2023-07-13T00:34:00;2.13;;;1.77;;
16766;SDS011;8501;49.926;8.404;2023-07-13T00:36:26;3.10;;;1.83;;
16766;SDS011;8501;49.926;8.404;2023-07-13T00:38:51;3.78;;;2.08;;
16766;SDS011;8501;49.926;8.404;2023-07-13T00:41:17;2.65;;;1.90;;
16766;SDS011;8501;49.926;8.404;2023-07-13T00:43:43;2.50;;;1.80;;
16766;SDS011;8501;49.926;8.404;2023-07-13T00:46:25;3.22;;;2.00;;
16766;SDS011;8501;49.926;8.404;2023-07-13T00:48:53;2.38;;;1.70;;
16766;SDS011;8501;49.926;8.404;2023-07-13T00:51:24;5.30;;;1.90;;
16766;SDS011;8501;49.926;8.404;2023-07-13T00:54:13;6.03;;;2.10;;
16766;SDS011;8501;49.926;8.404;2023-07-13T00:56:43;5.25;;;1.95;;
16766;SDS011;8501;49.926;8.404;2023-07-13T00:59:10;2.58;;;1.80;;
16766;SDS011;8501;49.926;8.404;2023-07-13T01:01:37;2.10;;;1.85;;
16766;SDS011;8501;49.926;8.404;2023-07-13T01:04:04;4.28;;;2.28;;
16766;SDS011;8501;49.926;8.404;2023-07-13T01:06:32;2.95;;;1.90;;
16766;SDS011;8501;49.926;8.404;2023-07-13T01:09:02;2.38;;;2.17;;
16766;SDS011;8501;49.926;8.404;2023-07-13T01:11:28;3.67;;;2.08;;
16766;SDS011;8501;49.926;8.404;2023-07-13T01:13:54;1.75;;;1.65;;
16766;SDS011;8501;49.926;8.404;2023-07-13T01:16:27;2.42;;;1.77;;
16766;SDS011;8501;49.926;8.404;2023-07-13T01:18:55;3.67;;;2.10;;
16766;SDS011;8501;49.926;8.404;2023-07-13T01:21:26;3.88;;;2.08;;
16766;SDS011;8501;49.926;8.404;2023-07-13T01:23:53;2.40;;;1.90;;
16766;SDS011;8501;49.926;8.404;2023-07-13T01:26:18;2.40;;;1.85;;
16766;SDS011;8501;49.926;8.404;2023-07-13T01:28:44;3.25;;;2.00;;
16766;SDS011;8501;49.926;8.404;2023-07-13T01:31:10;2.33;;;1.88;;
16766;SDS011;8501;49.926;8.404;2023-07-13T01:33:36;3.15;;;1.88;;
16766;SDS011;8501;49.926;8.404;2023-07-13T01:36:04;5.53;;;2.08;;
16766;SDS011;8501;49.926;8.404;2023-07-13T01:38:31;3.38;;;2.03;;
16766;SDS011;8501;49.926;8.404;2023-07-13T01:40:56;2.88;;;2.00;;
16766;SDS011;8501;49.926;8.404;2023-07-13T01:43:22;2.33;;;2.00;;
16766;SDS011;8501;49.926;8.404;2023-07-13T01:45:48;3.22;;;2.00;;
16766;SDS011;8501;49.926;8.404;2023-07-13T01:48:13;3.13;;;2.00;;
16766;SDS011;8501;49.926;8.404;2023-07-13T01:50:39;3.47;;;2.20;;
16766;SDS011;8501;49.926;8.404;2023-07-13T01:53:05;3.60;;;2.30;;
16766;SDS011;8501;49.926;8.404;2023-07-13T01:55:31;2.80;;;2.10;;
16766;SDS011;8501;49.926;8.404;2023-07-13T01:57:57;2.85;;;2.13;;
16766;SDS011;8501;49.926;8.404;2023-07-13T02:00:22;2.47;;;2.03;;
16766;SDS011;8501;49.926;8.404;2023-07-13T02:02:49;2.85;;;2.00;;
16766;SDS011;8501;49.926;8.404;2023-07-13T02:05:15;2.78;;;2.10;;
16766;SDS011;8501;49.926;8.404;2023-07-13T02:07:41;5.90;;;2.40;;
16766;SDS011;8501;49.926;8.404;2023-07-13T02:10:07;3.90;;;2.30;;
16766;SDS011;8501;49.926;8.404;2023-07-13T02:12:34;3.38;;;2.13;;
16766;SDS011;8501;49.926;8.404;2023-07-13T02:15:00;3.72;;;2.20;;
16766;SDS011;8501;49.926;8.404;2023-07-13T02:17:26;2.45;;;2.25;;
16766;SDS011;8501;49.926;8.404;2023-07-13T02:19:52;3.08;;;2.30;;
16766;SDS011;8501;49.926;8.404;2023-07-13T02:22:18;4.70;;;2.20;;
16766;SDS011;8501;49.926;8.404;2023-07-13T02:24:43;4.40;;;2.28;;
16766;SDS011;8501;49.926;8.404;2023-07-13T02:27:09;3.50;;;2.10;;
16766;SDS011;8501;49.926;8.404;2023-07-13T02:29:35;5.32;;;2.05;;
16766;SDS011;8501;49.926;8.404;2023-07-13T02:32:00;2.88;;;2.08;;
16766;SDS011;8501;49.926;8.404;2023-07-13T02:34:26;3.03;;;2.10;;
16766;SDS011;8501;49.926;8.404;2023-07-13T02:36:51;5.63;;;1.95;;
16766;SDS011;8501;49.926;8.404;2023-07-13T02:39:17;5.18;;;2.30;;
16766;SDS011;8501;49.926;8.404;2023-07-13T02:41:43;2.67;;;2.03;;
16766;SDS011;8501;49.926;8.404;2023-07-13T02:44:09;2.60;;;1.85;;
16766;SDS011;8501;49.926;8.404;2023-07-13T02:46:37;3.25;;;2.35;;
16766;SDS011;8501;49.926;8.404;2023-07-13T02:49:02;2.75;;;2.05;;
16766;SDS011;8501;49.926;8.404;2023-07-13T02:51:29;6.30;;;2.13;;
16766;SDS011;8501;49.926;8.404;2023-07-13T02:53:54;2.70;;;2.13;;
16766;SDS011;8501;49.926;8.404;2023-07-13T02:56:24;3.95;;;2.17;;
16766;SDS011;8501;49.926;8.404;2023-07-13T02:58:51;3.22;;;2.10;;
16766;SDS011;8501;49.926;8.404;2023-07-13T03:01:16;3.20;;;2.08;;
16766;SDS011;8501;49.926;8.404;2023-07-13T03:03:44;5.93;;;2.42;;
16766;SDS011;8501;49.926;8.404;2023-07-13T03:06:10;4.57;;;2.13;;
16766;SDS011;8501;49.926;8.404;2023-07-13T03:08:36;4.15;;;2.45;;
16766;SDS011;8501;49.926;8.404;2023-07-13T03:11:15;2.67;;;2.17;;
16766;SDS011;8501;49.926;8.404;2023-07-13T03:13:42;2.30;;;2.05;;
16766;SDS011;8501;49.926;8.404;2023-07-13T03:16:08;3.30;;;2.25;;
16766;SDS011;8501;49.926;8.404;2023-07-13T03:18:35;4.07;;;2.20;;
16766;SDS011;8501;49.926;8.404;2023-07-13T03:21:02;3.85;;;2.20;;
16766;SDS011;8501;49.926;8.404;2023-07-13T03:23:28;2.58;;;2.10;;
16766;SDS011;8501;49.926;8.404;2023-07-13T03:26:04;5.00;;;2.33;;
16766;SDS011;8501;49.926;8.404;2023-07-13T03:28:32;3.45;;;2.03;;
16766;SDS011;8501;49.926;8.404;2023-07-13T03:30:59;6.50;;;2.22;;
16766;SDS011;8501;49.926;8.404;2023-07-13T03:33:38;4.38;;;2.38;;
16766;SDS011;8501;49.926;8.404;2023-07-13T03:36:04;3.25;;;2.20;;
16766;SDS011;8501;49.926;8.404;2023-07-13T03:38:31;4.10;;;2.58;;
16766;SDS011;8501;49.926;8.404;2023-07-13T03:40:57;3.70;;;2.20;;
16766;SDS011;8501;49.926;8.404;2023-07-13T03:43:23;4.75;;;2.55;;
16766;SDS011;8501;49.926;8.404;2023-07-13T03:45:48;3.28;;;2.35;;
16766;SDS011;8501;49.926;8.404;2023-07-13T03:48:14;4.72;;;2.40;;
16766;SDS011;8501;49.926;8.404;2023-07-13T03:50:40;3.90;;;2.03;;
16766;SDS011;8501;49.926;8.404;2023-07-13T03:53:06;4.22;;;2.60;;
16766;SDS011;8501;49.926;8.404;2023-07-13T03:55:31;3.42;;;2.22;;
16766;SDS011;8501;49.926;8.404;2023-07-13T03:57:58;4.68;;;2.65;;
16766;SDS011;8501;49.926;8.404;2023-07-13T04:00:26;3.92;;;2.75;;
16766;SDS011;8501;49.926;8.404;2023-07-13T04:02:51;4.70;;;2.47;;
16766;SDS011;8501;49.926;8.404;2023-07-13T04:05:17;4.10;;;2.50;;
16766;SDS011;8501;49.926;8.404;2023-07-13T04:07:43;3.72;;;2.30;;
16766;SDS011;8501;49.926;8.404;2023-07-13T04:10:09;4.45;;;2.50;;
16766;SDS011;8501;49.926;8.404;2023-07-13T04:12:35;3.78;;;2.60;;
16766;SDS011;8501;49.926;8.404;2023-07-13T04:15:00;5.50;;;2.40;;
16766;SDS011;8501;49.926;8.404;2023-07-13T04:17:26;3.22;;;2.30;;
16766;SDS011;8501;49.926;8.404;2023-07-13T04:19:51;4.53;;;2.53;;
16766;SDS011;8501;49.926;8.404;2023-07-13T04:22:17;4.03;;;2.20;;
16766;SDS011;8501;49.926;8.404;2023-07-13T04:24:43;4.18;;;2.50;;
16766;SDS011;8501;49.926;8.404;2023-07-13T04:27:08;3.35;;;2.40;;
16766;SDS011;8501;49.926;8.404;2023-07-13T04:29:34;3.50;;;2.90;;
16766;SDS011;8501;49.926;8.404;2023-07-13T04:32:00;5.35;;;2.72;;
16766;SDS011;8501;49.926;8.404;2023-07-13T04:34:26;3.53;;;2.50;;
16766;SDS011;8501;49.926;8.404;2023-07-13T04:36:52;4.45;;;2.78;;
16766;SDS011;8501;49.926;8.404;2023-07-13T04:39:18;5.50;;;2.42;;
16766;SDS011;8501;49.926;8.404;2023-07-13T04:41:45;4.28;;;2.40;;
16766;SDS011;8501;49.926;8.404;2023-07-13T04:44:11;3.47;;;2.35;;
16766;SDS011;8501;49.926;8.404;2023-07-13T04:46:36;4.18;;;2.65;;
16766;SDS011;8501;49.926;8.404;2023-07-13T04:49:03;6.38;;;2.42;;
16766;SDS011;8501;49.926;8.404;2023-07-13T04:51:29;4.25;;;2.40;;
16766;SDS011;8501;49.926;8.404;2023-07-13T04:53:55;4.03;;;2.22;;
16766;SDS011;8501;49.926;8.404;2023-07-13T04:56:20;4.72;;;2.58;;
16766;SDS011;8501;49.926;8.404;2023-07-13T04:58:46;3.33;;;2.65;;
16766;SDS011;8501;49.926;8.404;2023-07-13T05:01:11;5.07;;;2.58;;
16766;SDS011;8501;49.926;8.404;2023-07-13T05:03:38;5.43;;;2.47;;
16766;SDS011;8501;49.926;8.404;2023-07-13T05:06:05;2.80;;;2.10;;
16766;SDS011;8501;49.926;8.404;2023-07-13T05:08:34;3.40;;;2.20;;
16766;SDS011;8501;49.926;8.404;2023-07-13T05:11:00;3.53;;;2.10;;
16766;SDS011;8501;49.926;8.404;2023-07-13T05:13:41;3.15;;;2.20;;
16766;SDS011;8501;49.926;8.404;2023-07-13T05:16:07;5.13;;;2.40;;
16766;SDS011;8501;49.926;8.404;2023-07-13T05:18:32;4.88;;;2.30;;
16766;SDS011;8501;49.926;8.404;2023-07-13T05:21:00;3.10;;;1.90;;
16766;SDS011;8501;49.926;8.404;2023-07-13T05:23:31;5.65;;;2.40;;
16766;SDS011;8501;49.926;8.404;2023-07-13T05:25:57;3.03;;;2.17;;
16766;SDS011;8501;49.926;8.404;2023-07-13T05:28:23;3.67;;;2.10;;
16766;SDS011;8501;49.926;8.404;2023-07-13T05:30:49;3.85;;;2.13;;
16766;SDS011;8501;49.926;8.404;2023-07-13T05:33:15;3.47;;;2.28;;
16766;SDS011;8501;49.926;8.404;2023-07-13T05:35:40;4.05;;;2.20;;
16766;SDS011;8501;49.926;8.404;2023-07-13T05:38:06;3.35;;;2.38;;
16766;SDS011;8501;49.926;8.404;2023-07-13T05:40:32;3.10;;;2.25;;
16766;SDS011;8501;49.926;8.404;2023-07-13T05:42:58;4.72;;;2.03;;
16766;SDS011;8501;49.926;8.404;2023-07-13T05:45:23;2.90;;;2.10;;
16766;SDS011;8501;49.926;8.404;2023-07-13T05:47:49;2.95;;;2.00;;
16766;SDS011;8501;49.926;8.404;2023-07-13T05:50:14;4.15;;;2.05;;
16766;SDS011;8501;49.926;8.404;2023-07-13T05:52:40;5.45;;;2.10;;
16766;SDS011;8501;49.926;8.404;2023-07-13T05:55:06;3.05;;;1.65;;
16766;SDS011;8501;49.926;8.404;2023-07-13T05:57:31;4.65;;;1.80;;
16766;SDS011;8501;49.926;8.404;2023-07-13T05:59:57;3.38;;;1.50;;
16766;SDS011;8501;49.926;8.404;2023-07-13T06:02:23;3.08;;;1.73;;
16766;SDS011;8501;49.926;8.404;2023-07-13T06:04:48;4.82;;;2.10;;
16766;SDS011;8501;49.926;8.404;2023-07-13T06:07:14;4.10;;;2.20;;
16766;SDS011;8501;49.926;8.404;2023-07-13T06:09:39;4.70;;;2.40;;
16766;SDS011;8501;49.926;8.404;2023-07-13T06:12:05;2.97;;;2.00;;
16766;SDS011;8501;49.926;8.404;2023-07-13T06:14:31;3.35;;;1.80;;
16766;SDS011;8501;49.926;8.404;2023-07-13T06:16:56;3.58;;;1.45;;
16766;SDS011;8501;49.926;8.404;2023-07-13T06:19:22;3.60;;;1.50;;
16766;SDS011;8501;49.926;8.404;2023-07-13T06:21:47;2.20;;;1.40;;
16766;SDS011;8501;49.926;8.404;2023-07-13T06:24:13;1.83;;;1.30;;
16766;SDS011;8501;49.926;8.404;2023-07-13T06:26:38;2.95;;;2.03;;
16766;SDS011;8501;49.926;8.404;2023-07-13T06:29:04;3.15;;;1.90;;
16766;SDS011;8501;49.926;8.404;2023-07-13T06:31:30;5.28;;;1.90;;
16766;SDS011;8501;49.926;8.404;2023-07-13T06:33:55;2.72;;;1.60;;
16766;SDS011;8501;49.926;8.404;2023-07-13T06:36:21;3.22;;;1.70;;
16766;SDS011;8501;49.926;8.404;2023-07-13T06:38:46;2.20;;;1.30;;
16766;SDS011;8501;49.926;8.404;2023-07-13T06:41:12;3.03;;;1.80;;
16766;SDS011;8501;49.926;8.404;2023-07-13T06:43:38;3.83;;;2.30;;
16766;SDS011;8501;49.926;8.404;2023-07-13T06:46:03;3.15;;;2.25;;
16766;SDS011;8501;49.926;8.404;2023-07-13T06:48:29;4.50;;;1.98;;
16766;SDS011;8501;49.926;8.404;2023-07-13T06:50:55;2.33;;;1.52;;
16766;SDS011;8501;49.926;8.404;2023-07-13T06:53:21;3.03;;;1.42;;
16766;SDS011;8501;49.926;8.404;2023-07-13T06:55:47;2.45;;;1.40;;
16766;SDS011;8501;49.926;8.404;2023-07-13T06:58:14;3.75;;;1.50;;
16766;SDS011;8501;49.926;8.404;2023-07-13T07:00:41;4.00;;;2.30;;
16766;SDS011;8501;49.926;8.404;2023-07-13T07:03:07;3.92;;;2.15;;
16766;SDS011;8501;49.926;8.404;2023-07-13T07:05:33;4.82;;;2.03;;
16766;SDS011;8501;49.926;8.404;2023-07-13T07:07:58;3.42;;;1.50;;
16766;SDS011;8501;49.926;8.404;2023-07-13T07:10:24;3.65;;;1.60;;
16766;SDS011;8501;49.926;8.404;2023-07-13T07:12:50;2.70;;;1.45;;
16766;SDS011;8501;49.926;8.404;2023-07-13T07:15:15;2.67;;;1.50;;
16766;SDS011;8501;49.926;8.404;2023-07-13T07:17:41;3.80;;;1.60;;
16766;SDS011;8501;49.926;8.404;2023-07-13T07:20:07;2.13;;;1.63;;
16766;SDS011;8501;49.926;8.404;2023-07-13T07:22:33;4.20;;;1.50;;
16766;SDS011;8501;49.926;8.404;2023-07-13T07:24:59;4.15;;;1.50;;
16766;SDS011;8501;49.926;8.404;2023-07-13T07:27:24;3.40;;;1.60;;
16766;SDS011;8501;49.926;8.404;2023-07-13T07:29:50;2.35;;;1.60;;
16766;SDS011;8501;49.926;8.404;2023-07-13T07:32:15;3.20;;;1.50;;
16766;SDS011;8501;49.926;8.404;2023-07-13T07:34:41;2.88;;;1.50;;
16766;SDS011;8501;49.926;8.404;2023-07-13T07:37:06;4.40;;;1.42;;
16766;SDS011;8501;49.926;8.404;2023-07-13T07:39:35;3.53;;;1.60;;
16766;SDS011;8501;49.926;8.404;2023-07-13T07:42:01;2.42;;;1.50;;
16766;SDS011;8501;49.926;8.404;2023-07-13T07:44:26;2.40;;;1.30;;
16766;SDS011;8501;49.926;8.404;2023-07-13T07:46:53;4.78;;;1.50;;
16766;SDS011;8501;49.926;8.404;2023-07-13T07:49:19;2.30;;;1.38;;
16766;SDS011;8501;49.926;8.404;2023-07-13T07:51:45;2.03;;;1.38;;
16766;SDS011;8501;49.926;8.404;2023-07-13T07:54:10;3.83;;;1.30;;
16766;SDS011;8501;49.926;8.404;2023-07-13T07:56:36;4.70;;;1.30;;
16766;SDS011;8501;49.926;8.404;2023-07-13T07:59:02;2.47;;;1.40;;
16766;SDS011;8501;49.926;8.404;2023-07-13T08:01:27;3.05;;;1.48;;
16766;SDS011;8501;49.926;8.404;2023-07-13T08:03:53;4.97;;;1.60;;
16766;SDS011;8501;49.926;8.404;2023-07-13T08:06:18;3.75;;;1.40;;
16766;SDS011;8501;49.926;8.404;2023-07-13T08:08:45;4.30;;;1.70;;
16766;SDS011;8501;49.926;8.404;2023-07-13T08:11:11;3.17;;;1.35;;
16766;SDS011;8501;49.926;8.404;2023-07-13T08:13:37;3.30;;;1.40;;
16766;SDS011;8501;49.926;8.404;2023-07-13T08:16:04;2.63;;;1.25;;
16766;SDS011;8501;49.926;8.404;2023-07-13T08:18:30;3.63;;;1.50;;
16766;SDS011;8501;49.926;8.404;2023-07-13T08:20:56;3.00;;;1.45;;
16766;SDS011;8501;49.926;8.404;2023-07-13T08:23:22;4.50;;;1.42;;
16766;SDS011;8501;49.926;8.404;2023-07-13T08:25:54;3.88;;;1.25;;
16766;SDS011;8501;49.926;8.404;2023-07-13T08:28:20;2.90;;;1.40;;
16766;SDS011;8501;49.926;8.404;2023-07-13T08:30:46;4.10;;;1.50;;
16766;SDS011;8501;49.926;8.404;2023-07-13T08:33:16;2.53;;;1.35;;
16766;SDS011;8501;49.926;8.404;2023-07-13T08:35:45;4.22;;;1.35;;
16766;SDS011;8501;49.926;8.404;2023-07-13T08:38:14;3.33;;;1.42;;
16766;SDS011;8501;49.926;8.404;2023-07-13T08:40:40;3.08;;;1.42;;
16766;SDS011;8501;49.926;8.404;2023-07-13T08:43:09;2.42;;;1.38;;
16766;SDS011;8501;49.926;8.404;2023-07-13T08:45:52;3.63;;;1.40;;
16766;SDS011;8501;49.926;8.404;2023-07-13T08:48:26;3.88;;;1.27;;
16766;SDS011;8501;49.926;8.404;2023-07-13T08:50:58;2.95;;;1.35;;
16766;SDS011;8501;49.926;8.404;2023-07-13T08:53:31;2.67;;;1.10;;
16766;SDS011;8501;49.926;8.404;2023-07-13T08:56:02;3.00;;;1.33;;
16766;SDS011;8501;49.926;8.404;2023-07-13T08:58:30;3.35;;;1.20;;
16766;SDS011;8501;49.926;8.404;2023-07-13T09:00:59;2.47;;;1.35;;
16766;SDS011;8501;49.926;8.404;2023-07-13T09:03:52;1.52;;;1.08;;
16766;SDS011;8501;49.926;8.404;2023-07-13T09:06:34;2.75;;;1.40;;
16766;SDS011;8501;49.926;8.404;2023-07-13T09:09:20;2.78;;;1.27;;
16766;SDS011;8501;49.926;8.404;2023-07-13T09:12:25;2.97;;;1.27;;
16766;SDS011;8501;49.926;8.404;2023-07-13T09:15:01;2.53;;;1.25;;
16766;SDS011;8501;49.926;8.404;2023-07-13T09:17:32;3.80;;;1.40;;
16766;SDS011;8501;49.926;8.404;2023-07-13T09:22:53;3.60;;;1.33;;
16766;SDS011;8501;49.926;8.404;2023-07-13T09:27:56;3.30;;;1.20;;
16766;SDS011;8501;49.926;8.404;2023-07-13T09:30:54;1.80;;;1.35;;
16766;SDS011;8501;49.926;8.404;2023-07-13T09:33:29;1.63;;;1.10;;
16766;SDS011;8501;49.926;8.404;2023-07-13T09:35:56;1.23;;;0.93;;
16766;SDS011;8501;49.926;8.404;2023-07-13T09:38:23;3.38;;;1.20;;
16766;SDS011;8501;49.926;8.404;2023-07-13T09:43:28;2.03;;;1.20;;
16766;SDS011;8501;49.926;8.404;2023-07-13T09:45:54;2.13;;;1.10;;
16766;SDS011;8501;49.926;8.404;2023-07-13T09:48:20;2.28;;;1.13;;
16766;SDS011;8501;49.926;8.404;2023-07-13T09:50:46;2.25;;;0.95;;
16766;SDS011;8501;49.926;8.404;2023-07-13T09:55:40;1.60;;;1.10;;
16766;SDS011;8501;49.926;8.404;2023-07-13T09:58:13;2.63;;;1.40;;
16766;SDS011;8501;49.926;8.404;2023-07-13T10:00:55;3.17;;;1.20;;
16766;SDS011;8501;49.926;8.404;2023-07-13T10:03:32;2.63;;;1.23;;
16766;SDS011;8501;49.926;8.404;2023-07-13T10:06:16;1.90;;;0.98;;
16766;SDS011;8501;49.926;8.404;2023-07-13T10:08:44;2.60;;;1.17;;
16766;SDS011;8501;49.926;8.404;2023-07-13T10:13:43;2.08;;;0.90;;
16766;SDS011;8501;49.926;8.404;2023-07-13T10:16:13;2.50;;;1.20;;
16766;SDS011;8501;49.926;8.404;2023-07-13T10:18:44;2.45;;;1.10;;
16766;SDS011;8501;49.926;8.404;2023-07-13T10:21:13;2.58;;;1.00;;
16766;SDS011;8501;49.926;8.404;2023-07-13T10:23:43;2.28;;;1.10;;
16766;SDS011;8501;49.926;8.404;2023-07-13T10:26:15;4.78;;;1.30;;
16766;SDS011;8501;49.926;8.404;2023-07-13T10:28:47;2.55;;;1.13;;
16766;SDS011;8501;49.926;8.404;2023-07-13T10:31:17;3.38;;;1.33;;
16766;SDS011;8501;49.926;8.404;2023-07-13T10:33:44;3.95;;;1.63;;
16766;SDS011;8501;49.926;8.404;2023-07-13T10:36:27;2.78;;;1.33;;
16766;SDS011;8501;49.926;8.404;2023-07-13T10:39:05;2.30;;;1.30;;
16766;SDS011;8501;49.926;8.404;2023-07-13T10:41:36;1.52;;;1.10;;
16766;SDS011;8501;49.926;8.404;2023-07-13T10:44:06;3.05;;;1.25;;
16766;SDS011;8501;49.926;8.404;2023-07-13T10:46:46;8.23;;;2.67;;
16766;SDS011;8501;49.926;8.404;2023-07-13T10:49:12;3.20;;;1.50;;
16766;SDS011;8501;49.926;8.404;2023-07-13T10:51:38;1.98;;;1.35;;
16766;SDS011;8501;49.926;8.404;2023-07-13T10:57:07;2.47;;;1.30;;
16766;SDS011;8501;49.926;8.404;2023-07-13T10:59:48;2.47;;;1.45;;
16766;SDS011;8501;49.926;8.404;2023-07-13T11:02:27;2.85;;;1.30;;
16766;SDS011;8501;49.926;8.404;2023-07-13T11:04:54;2.50;;;1.45;;
16766;SDS011;8501;49.926;8.404;2023-07-13T11:07:22;4.28;;;1.40;;
16766;SDS011;8501;49.926;8.404;2023-07-13T11:09:58;2.53;;;1.10;;
16766;SDS011;8501;49.926;8.404;2023-07-13T11:12:26;2.72;;;1.30;;
16766;SDS011;8501;49.926;8.404;2023-07-13T11:22:44;2.25;;;1.20;;
16766;SDS011;8501;49.926;8.404;2023-07-13T11:30:40;1.90;;;1.20;;
16766;SDS011;8501;49.926;8.404;2023-07-13T11:33:27;3.05;;;1.20;;
16766;SDS011;8501;49.926;8.404;2023-07-13T11:36:14;3.72;;;1.30;;
16766;SDS011;8501;49.926;8.404;2023-07-13T11:38:42;1.88;;;1.17;;
16766;SDS011;8501;49.926;8.404;2023-07-13T11:43:49;1.98;;;1.20;;
16766;SDS011;8501;49.926;8.404;2023-07-13T11:46:17;3.20;;;1.38;;
16766;SDS011;8501;49.926;8.404;2023-07-13T11:48:47;3.50;;;1.38;;
16766;SDS011;8501;49.926;8.404;2023-07-13T11:51:19;4.03;;;1.70;;
16766;SDS011;8501;49.926;8.404;2023-07-13T11:53:46;1.85;;;1.42;;
16766;SDS011;8501;49.926;8.404;2023-07-13T11:56:14;2.65;;;1.50;;
16766;SDS011;8501;49.926;8.404;2023-07-13T11:58:39;2.08;;;1.70;;
16766;SDS011;8501;49.926;8.404;2023-07-13T12:01:06;2.45;;;1.50;;
16766;SDS011;8501;49.926;8.404;2023-07-13T12:03:37;2.90;;;1.70;;
16766;SDS011;8501;49.926;8.404;2023-07-13T12:06:06;4.43;;;1.63;;
16766;SDS011;8501;49.926;8.404;2023-07-13T12:08:50;3.03;;;1.40;;
16766;SDS011;8501;49.926;8.404;2023-07-13T12:11:17;2.28;;;1.40;;
16766;SDS011;8501;49.926;8.404;2023-07-13T12:13:43;2.33;;;1.33;;
16766;SDS011;8501;49.926;8.404;2023-07-13T12:16:18;3.42;;;1.38;;
16766;SDS011;8501;49.926;8.404;2023-07-13T12:18:49;5.30;;;1.77;;
16766;SDS011;8501;49.926;8.404;2023-07-13T12:21:18;4.53;;;1.50;;
16766;SDS011;8501;49.926;8.404;2023-07-13T12:23:47;4.55;;;1.50;;
16766;SDS011;8501;49.926;8.404;2023-07-13T12:26:14;5.70;;;1.40;;
16766;SDS011;8501;49.926;8.404;2023-07-13T12:28:47;1.85;;;1.30;;
16766;SDS011;8501;49.926;8.404;2023-07-13T12:31:22;7.85;;;1.38;;
16766;SDS011;8501;49.926;8.404;2023-07-13T12:36:33;2.22;;;1.30;;
16766;SDS011;8501;49.926;8.404;2023-07-13T12:39:02;2.85;;;1.23;;
16766;SDS011;8501;49.926;8.404;2023-07-13T12:41:36;3.10;;;1.10;;
16766;SDS011;8501;49.926;8.404;2023-07-13T12:44:01;4.20;;;1.33;;
16766;SDS011;8501;49.926;8.404;2023-07-13T12:46:28;2.85;;;1.30;;
16766;SDS011;8501;49.926;8.404;2023-07-13T12:48:54;7.55;;;1.27;;
16766;SDS011;8501;49.926;8.404;2023-07-13T12:51:26;3.53;;;1.65;;
16766;SDS011;8501;49.926;8.404;2023-07-13T12:54:13;2.90;;;1.40;;
16766;SDS011;8501;49.926;8.404;2023-07-13T12:56:41;4.00;;;1.50;;
16766;SDS011;8501;49.926;8.404;2023-07-13T12:59:09;2.38;;;1.40;;
16766;SDS011;8501;49.926;8.404;2023-07-13T13:01:41;3.60;;;1.73;;
16766;SDS011;8501;49.926;8.404;2023-07-13T13:04:08;5.20;;;2.10;;
16766;SDS011;8501;49.926;8.404;2023-07-13T13:06:36;3.13;;;1.45;;
16766;SDS011;8501;49.926;8.404;2023-07-13T13:09:03;5.88;;;1.67;;
16766;SDS011;8501;49.926;8.404;2023-07-13T13:11:34;4.95;;;1.58;;
16766;SDS011;8501;49.926;8.404;2023-07-13T13:13:59;4.10;;;1.80;;
16766;SDS011;8501;49.926;8.404;2023-07-13T13:18:57;3.85;;;1.50;;
16766;SDS011;8501;49.926;8.404;2023-07-13T13:21:25;2.85;;;1.50;;
16766;SDS011;8501;49.926;8.404;2023-07-13T13:23:51;3.47;;;1.38;;
16766;SDS011;8501;49.926;8.404;2023-07-13T13:26:18;4.50;;;1.42;;
16766;SDS011;8501;49.926;8.404;2023-07-13T13:28:45;4.38;;;1.42;;
16766;SDS011;8501;49.926;8.404;2023-07-13T13:31:12;2.83;;;1.10;;
16766;SDS011;8501;49.926;8.404;2023-07-13T13:33:39;3.03;;;1.40;;
16766;SDS011;8501;49.926;8.404;2023-07-13T13:36:14;2.97;;;1.30;;
16766;SDS011;8501;49.926;8.404;2023-07-13T13:38:41;1.17;;;1.05;;
16766;SDS011;8501;49.926;8.404;2023-07-13T13:41:07;4.68;;;1.33;;
16766;SDS011;8501;49.926;8.404;2023-07-13T13:43:35;2.88;;;1.30;;
16766;SDS011;8501;49.926;8.404;2023-07-13T13:46:01;2.75;;;1.35;;
16766;SDS011;8501;49.926;8.404;2023-07-13T13:48:31;3.65;;;1.60;;
16766;SDS011;8501;49.926;8.404;2023-07-13T13:50:58;3.50;;;1.50;;
16766;SDS011;8501;49.926;8.404;2023-07-13T13:53:25;3.60;;;1.35;;
16766;SDS011;8501;49.926;8.404;2023-07-13T13:55:51;2.50;;;1.30;;
16766;SDS011;8501;49.926;8.404;2023-07-13T13:58:17;2.17;;;1.20;;
16766;SDS011;8501;49.926;8.404;2023-07-13T14:00:44;2.35;;;1.35;;
16766;SDS011;8501;49.926;8.404;2023-07-13T14:03:20;3.42;;;1.13;;
16766;SDS011;8501;49.926;8.404;2023-07-13T14:05:46;4.00;;;1.40;;
16766;SDS011;8501;49.926;8.404;2023-07-13T14:08:20;3.03;;;1.30;;
16766;SDS011;8501;49.926;8.404;2023-07-13T14:10:46;3.33;;;1.50;;
16766;SDS011;8501;49.926;8.404;2023-07-13T14:13:18;3.15;;;1.33;;
16766;SDS011;8501;49.926;8.404;2023-07-13T14:15:47;1.50;;;1.10;;
16766;SDS011;8501;49.926;8.404;2023-07-13T14:18:13;3.88;;;1.40;;
16766;SDS011;8501;49.926;8.404;2023-07-13T14:20:43;1.92;;;1.20;;
16766;SDS011;8501;49.926;8.404;2023-07-13T14:23:11;3.45;;;1.48;;
16766;SDS011;8501;49.926;8.404;2023-07-13T14:25:38;3.10;;;1.20;;
16766;SDS011;8501;49.926;8.404;2023-07-13T14:28:14;1.77;;;1.23;;
16766;SDS011;8501;49.926;8.404;2023-07-13T14:30:45;2.70;;;1.33;;
16766;SDS011;8501;49.926;8.404;2023-07-13T14:33:12;2.65;;;1.40;;
16766;SDS011;8501;49.926;8.404;2023-07-13T14:35:37;1.85;;;1.40;;
16766;SDS011;8501;49.926;8.404;2023-07-13T14:38:03;2.13;;;1.15;;
16766;SDS011;8501;49.926;8.404;2023-07-13T14:40:30;3.80;;;1.42;;
16766;SDS011;8501;49.926;8.404;2023-07-13T14:42:57;3.83;;;1.20;;
16766;SDS011;8501;49.926;8.404;2023-07-13T14:45:23;4.10;;;1.40;;
16766;SDS011;8501;49.926;8.404;2023-07-13T14:47:49;1.65;;;1.25;;
16766;SDS011;8501;49.926;8.404;2023-07-13T14:50:16;2.72;;;1.20;;
16766;SDS011;8501;49.926;8.404;2023-07-13T14:52:47;3.42;;;1.33;;
16766;SDS011;8501;49.926;8.404;2023-07-13T14:55:14;2.58;;;1.23;;
16766;SDS011;8501;49.926;8.404;2023-07-13T14:57:41;2.20;;;1.23;;
16766;SDS011;8501;49.926;8.404;2023-07-13T15:00:12;2.15;;;1.23;;
16766;SDS011;8501;49.926;8.404;2023-07-13T15:02:43;3.10;;;1.50;;
16766;SDS011;8501;49.926;8.404;2023-07-13T15:05:19;3.40;;;1.25;;
16766;SDS011;8501;49.926;8.404;2023-07-13T15:07:48;2.92;;;1.38;;
16766;SDS011;8501;49.926;8.404;2023-07-13T15:10:15;3.17;;;1.15;;
16766;SDS011;8501;49.926;8.404;2023-07-13T15:12:45;2.55;;;1.20;;
16766;SDS011;8501;49.926;8.404;2023-07-13T15:15:11;1.80;;;1.15;;
16766;SDS011;8501;49.926;8.404;2023-07-13T15:17:38;2.58;;;1.40;;
16766;SDS011;8501;49.926;8.404;2023-07-13T15:20:15;1.35;;;1.10;;
16766;SDS011;8501;49.926;8.404;2023-07-13T15:22:48;1.45;;;1.15;;
16766;SDS011;8501;49.926;8.404;2023-07-13T15:25:15;2.20;;;1.17;;
16766;SDS011;8501;49.926;8.404;2023-07-13T15:27:43;2.13;;;1.10;;
16766;SDS011;8501;49.926;8.404;2023-07-13T15:30:09;2.35;;;1.10;;
16766;SDS011;8501;49.926;8.404;2023-07-13T15:32:35;3.25;;;1.13;;
16766;SDS011;8501;49.926;8.404;2023-07-13T15:35:00;2.70;;;1.27;;
16766;SDS011;8501;49.926;8.404;2023-07-13T15:37:26;2.33;;;1.40;;
16766;SDS011;8501;49.926;8.404;2023-07-13T15:39:51;2.15;;;1.20;;
16766;SDS011;8501;49.926;8.404;2023-07-13T15:42:18;3.67;;;1.20;;
16766;SDS011;8501;49.926;8.404;2023-07-13T15:44:45;1.13;;;0.95;;